sensor_id;sensor_type;location;lat;lon;timestamp;temperature;humidity
3678;DHT22;1855;50.934;6.958;2023-11-19T00:02:25;10.20;99.90
3678;DHT22;1855;50.934;6.958;2023-11-19T00:04:53;10.20;99.90
3678;DHT22;1855;50.934;6.958;2023-11-19T00:07:20;10.20;99.90
3678;DHT22;1855;50.934;6.958;2023-11-19T00:09:47;10.20;99.90
3678;DHT22;1855;50.934;6.958;2023-11-19T00:12:13;10.20;99.90
3678;DHT22;1855;50.934;6.958;2023-11-19T00:14:40;10.30;99.90
3678;DHT22;1855;50.934;6.958;2023-11-19T00:17:07;10.30;99.90
3678;DHT22;1855;50.934;6.958;2023-11-19T00:19:34;10.30;99.90
3678;DHT22;1855;50.934;6.958;2023-11-19T00:22:02;10.30;99.90
3678;DHT22;1855;50.934;6.958;2023-11-19T00:24:29;10.40;99.90
3678;DHT22;1855;50.934;6.958;2023-11-19T00:26:57;10.40;99.90
3678;DHT22;1855;50.934;6.958;2023-11-19T00:29:24;10.40;99.90
3678;DHT22;1855;50.934;6.958;2023-11-19T00:31:50;10.40;99.90
3678;DHT22;1855;50.934;6.958;2023-11-19T00:34:17;10.40;99.90
3678;DHT22;1855;50.934;6.958;2023-11-19T00:36:47;10.40;99.90
3678;DHT22;1855;50.934;6.958;2023-11-19T00:39:15;10.40;99.90
3678;DHT22;1855;50.934;6.958;2023-11-19T00:41:43;10.40;99.90
3678;DHT22;1855;50.934;6.958;2023-11-19T00:44:11;10.50;99.90
3678;DHT22;1855;50.934;6.958;2023-11-19T00:46:38;10.40;99.90
3678;DHT22;1855;50.934;6.958;2023-11-19T00:49:04;10.50;99.90
3678;DHT22;1855;50.934;6.958;2023-11-19T00:51:31;10.50;99.90
3678;DHT22;1855;50.934;6.958;2023-11-19T00:53:58;10.50;99.90
3678;DHT22;1855;50.934;6.958;2023-11-19T00:56:27;10.50;99.90
3678;DHT22;1855;50.934;6.958;2023-11-19T00:58:54;10.60;99.90
3678;DHT22;1855;50.934;6.958;2023-11-19T01:01:21;10.60;99.90
3678;DHT22;1855;50.934;6.958;2023-11-19T01:03:48;10.60;99.90
3678;DHT22;1855;50.934;6.958;2023-11-19T01:06:15;10.60;99.90
3678;DHT22;1855;50.934;6.958;2023-11-19T01:08:42;10.60;99.90
3678;DHT22;1855;50.934;6.958;2023-11-19T01:11:19;10.60;99.90
3678;DHT22;1855;50.934;6.958;2023-11-19T01:13:50;10.60;99.90
3678;DHT22;1855;50.934;6.958;2023-11-19T01:16:17;10.60;99.90
3678;DHT22;1855;50.934;6.958;2023-11-19T01:18:44;10.70;99.90
3678;DHT22;1855;50.934;6.958;2023-11-19T01:21:13;10.70;99.90
3678;DHT22;1855;50.934;6.958;2023-11-19T01:23:40;10.70;99.90
3678;DHT22;1855;50.934;6.958;2023-11-19T01:26:08;10.70;99.90
3678;DHT22;1855;50.934;6.958;2023-11-19T01:28:35;10.70;99.90
3678;DHT22;1855;50.934;6.958;2023-11-19T01:31:04;10.70;99.90
3678;DHT22;1855;50.934;6.958;2023-11-19T01:33:30;10.70;99.90
3678;DHT22;1855;50.934;6.958;2023-11-19T01:35:57;10.80;99.90
3678;DHT22;1855;50.934;6.958;2023-11-19T01:38:24;10.80;99.90
3678;DHT22;1855;50.934;6.958;2023-11-19T01:40:56;10.80;99.90
3678;DHT22;1855;50.934;6.958;2023-11-19T01:43:33;10.90;99.90
3678;DHT22;1855;50.934;6.958;2023-11-19T01:46:00;10.90;99.90
3678;DHT22;1855;50.934;6.958;2023-11-19T01:48:28;11.00;99.90
3678;DHT22;1855;50.934;6.958;2023-11-19T01:50:55;11.10;99.90
3678;DHT22;1855;50.934;6.958;2023-11-19T01:53:23;11.20;99.90
3678;DHT22;1855;50.934;6.958;2023-11-19T01:55:50;11.30;99.90
3678;DHT22;1855;50.934;6.958;2023-11-19T01:58:18;11.40;99.90
3678;DHT22;1855;50.934;6.958;2023-11-19T02:00:45;11.50;99.90
3678;DHT22;1855;50.934;6.958;2023-11-19T02:03:12;11.50;99.90
3678;DHT22;1855;50.934;6.958;2023-11-19T02:05:41;11.70;99.90
3678;DHT22;1855;50.934;6.958;2023-11-19T02:08:08;11.80;99.90
3678;DHT22;1855;50.934;6.958;2023-11-19T02:10:35;11.80;99.90
3678;DHT22;1855;50.934;6.958;2023-11-19T02:13:01;11.90;99.90
3678;DHT22;1855;50.934;6.958;2023-11-19T02:15:31;12.00;99.90
3678;DHT22;1855;50.934;6.958;2023-11-19T02:18:17;12.00;99.90
3678;DHT22;1855;50.934;6.958;2023-11-19T02:20:46;12.00;99.90
3678;DHT22;1855;50.934;6.958;2023-11-19T02:23:13;11.90;99.90
3678;DHT22;1855;50.934;6.958;2023-11-19T02:25:40;11.90;99.90
3678;DHT22;1855;50.934;6.958;2023-11-19T02:28:09;12.00;99.90
3678;DHT22;1855;50.934;6.958;2023-11-19T02:30:37;12.00;99.90
3678;DHT22;1855;50.934;6.958;2023-11-19T02:33:04;12.00;99.90
3678;DHT22;1855;50.934;6.958;2023-11-19T02:35:32;12.00;99.90
3678;DHT22;1855;50.934;6.958;2023-11-19T02:37:59;12.00;99.90
3678;DHT22;1855;50.934;6.958;2023-11-19T02:40:26;12.00;99.90
3678;DHT22;1855;50.934;6.958;2023-11-19T02:42:53;12.00;99.90
3678;DHT22;1855;50.934;6.958;2023-11-19T02:45:23;12.00;99.90
3678;DHT22;1855;50.934;6.958;2023-11-19T02:47:50;12.00;99.90
3678;DHT22;1855;50.934;6.958;2023-11-19T02:50:17;12.00;99.90
3678;DHT22;1855;50.934;6.958;2023-11-19T02:52:51;12.00;99.90
3678;DHT22;1855;50.934;6.958;2023-11-19T02:55:18;12.00;99.90
3678;DHT22;1855;50.934;6.958;2023-11-19T02:57:45;12.00;99.90
3678;DHT22;1855;50.934;6.958;2023-11-19T03:00:14;12.00;99.90
3678;DHT22;1855;50.934;6.958;2023-11-19T03:02:43;11.90;99.90
3678;DHT22;1855;50.934;6.958;2023-11-19T03:05:11;11.90;99.90
3678;DHT22;1855;50.934;6.958;2023-11-19T03:07:40;11.90;99.90
3678;DHT22;1855;50.934;6.958;2023-11-19T03:10:08;11.80;99.90
3678;DHT22;1855;50.934;6.958;2023-11-19T03:12:38;11.80;99.90
3678;DHT22;1855;50.934;6.958;2023-11-19T03:15:05;11.80;99.90
3678;DHT22;1855;50.934;6.958;2023-11-19T03:17:32;11.80;99.90
3678;DHT22;1855;50.934;6.958;2023-11-19T03:20:00;11.90;99.90
3678;DHT22;1855;50.934;6.958;2023-11-19T03:22:27;11.90;99.90
3678;DHT22;1855;50.934;6.958;2023-11-19T03:24:54;11.90;99.90
3678;DHT22;1855;50.934;6.958;2023-11-19T03:27:20;11.90;99.90
3678;DHT22;1855;50.934;6.958;2023-11-19T03:29:47;11.90;99.90
3678;DHT22;1855;50.934;6.958;2023-11-19T03:32:14;12.00;99.90
3678;DHT22;1855;50.934;6.958;2023-11-19T03:34:41;12.00;99.90
3678;DHT22;1855;50.934;6.958;2023-11-19T03:37:09;12.00;99.90
3678;DHT22;1855;50.934;6.958;2023-11-19T03:39:35;12.00;99.90
3678;DHT22;1855;50.934;6.958;2023-11-19T03:42:03;12.00;99.90
3678;DHT22;1855;50.934;6.958;2023-11-19T03:44:29;12.10;99.90
3678;DHT22;1855;50.934;6.958;2023-11-19T03:46:56;12.10;99.90
3678;DHT22;1855;50.934;6.958;2023-11-19T03:49:23;12.10;99.90
3678;DHT22;1855;50.934;6.958;2023-11-19T03:51:50;12.10;99.90
3678;DHT22;1855;50.934;6.958;2023-11-19T03:54:18;12.20;99.90
3678;DHT22;1855;50.934;6.958;2023-11-19T03:56:45;12.20;99.90
3678;DHT22;1855;50.934;6.958;2023-11-19T03:59:12;12.30;99.90
3678;DHT22;1855;50.934;6.958;2023-11-19T04:01:40;12.30;99.90
3678;DHT22;1855;50.934;6.958;2023-11-19T04:04:07;12.40;99.90
3678;DHT22;1855;50.934;6.958;2023-11-19T04:06:34;12.30;99.90
3678;DHT22;1855;50.934;6.958;2023-11-19T04:09:01;12.30;99.90
3678;DHT22;1855;50.934;6.958;2023-11-19T04:11:29;12.30;99.90
3678;DHT22;1855;50.934;6.958;2023-11-19T04:13:56;12.30;99.90
3678;DHT22;1855;50.934;6.958;2023-11-19T04:16:26;12.30;99.90
3678;DHT22;1855;50.934;6.958;2023-11-19T04:18:54;12.30;99.90
3678;DHT22;1855;50.934;6.958;2023-11-19T04:21:21;12.20;99.90
3678;DHT22;1855;50.934;6.958;2023-11-19T04:23:48;12.20;99.90
3678;DHT22;1855;50.934;6.958;2023-11-19T04:26:15;12.30;99.90
3678;DHT22;1855;50.934;6.958;2023-11-19T04:28:43;12.30;99.90
3678;DHT22;1855;50.934;6.958;2023-11-19T04:31:10;12.30;99.90
3678;DHT22;1855;50.934;6.958;2023-11-19T04:33:36;12.30;99.90
3678;DHT22;1855;50.934;6.958;2023-11-19T04:36:04;12.30;99.90
3678;DHT22;1855;50.934;6.958;2023-11-19T04:38:30;12.30;99.90
3678;DHT22;1855;50.934;6.958;2023-11-19T04:40:57;12.30;99.90
3678;DHT22;1855;50.934;6.958;2023-11-19T04:43:24;12.40;99.90
3678;DHT22;1855;50.934;6.958;2023-11-19T04:45:52;12.40;99.90
3678;DHT22;1855;50.934;6.958;2023-11-19T04:48:19;12.50;99.90
3678;DHT22;1855;50.934;6.958;2023-11-19T04:50:45;12.50;99.90
3678;DHT22;1855;50.934;6.958;2023-11-19T04:53:12;12.50;99.90
3678;DHT22;1855;50.934;6.958;2023-11-19T04:55:41;12.50;99.90
3678;DHT22;1855;50.934;6.958;2023-11-19T04:58:08;12.50;99.90
3678;DHT22;1855;50.934;6.958;2023-11-19T05:00:34;12.50;99.90
3678;DHT22;1855;50.934;6.958;2023-11-19T05:03:02;12.40;99.90
3678;DHT22;1855;50.934;6.958;2023-11-19T05:05:29;12.40;99.90
3678;DHT22;1855;50.934;6.958;2023-11-19T05:07:56;12.40;99.90
3678;DHT22;1855;50.934;6.958;2023-11-19T05:10:23;12.40;99.90
3678;DHT22;1855;50.934;6.958;2023-11-19T05:12:50;12.30;99.90
3678;DHT22;1855;50.934;6.958;2023-11-19T05:15:17;12.30;99.90
3678;DHT22;1855;50.934;6.958;2023-11-19T05:17:43;12.20;99.90
3678;DHT22;1855;50.934;6.958;2023-11-19T05:20:12;12.20;99.90
3678;DHT22;1855;50.934;6.958;2023-11-19T05:22:39;12.20;99.90
3678;DHT22;1855;50.934;6.958;2023-11-19T05:25:07;12.10;99.90
3678;DHT22;1855;50.934;6.958;2023-11-19T05:27:34;12.10;99.90
3678;DHT22;1855;50.934;6.958;2023-11-19T05:30:01;12.10;99.90
3678;DHT22;1855;50.934;6.958;2023-11-19T05:32:28;12.10;99.90
3678;DHT22;1855;50.934;6.958;2023-11-19T05:34:55;12.10;99.90
3678;DHT22;1855;50.934;6.958;2023-11-19T05:37:23;12.20;99.90
3678;DHT22;1855;50.934;6.958;2023-11-19T05:39:50;12.10;99.90
3678;DHT22;1855;50.934;6.958;2023-11-19T05:42:17;12.10;99.90
3678;DHT22;1855;50.934;6.958;2023-11-19T05:44:44;12.10;99.90
3678;DHT22;1855;50.934;6.958;2023-11-19T05:47:11;12.10;99.90
3678;DHT22;1855;50.934;6.958;2023-11-19T05:49:38;12.10;99.90
3678;DHT22;1855;50.934;6.958;2023-11-19T05:52:05;12.10;99.90
3678;DHT22;1855;50.934;6.958;2023-11-19T05:54:34;12.10;99.90
3678;DHT22;1855;50.934;6.958;2023-11-19T05:57:03;12.10;99.90
3678;DHT22;1855;50.934;6.958;2023-11-19T05:59:30;12.20;99.90
3678;DHT22;1855;50.934;6.958;2023-11-19T06:01:58;12.10;99.90
3678;DHT22;1855;50.934;6.958;2023-11-19T06:04:25;12.00;99.90
3678;DHT22;1855;50.934;6.958;2023-11-19T06:06:52;11.90;99.90
3678;DHT22;1855;50.934;6.958;2023-11-19T06:09:20;12.00;99.90
3678;DHT22;1855;50.934;6.958;2023-11-19T06:11:50;12.00;99.90
3678;DHT22;1855;50.934;6.958;2023-11-19T06:14:17;12.00;99.90
3678;DHT22;1855;50.934;6.958;2023-11-19T06:16:44;11.90;99.90
3678;DHT22;1855;50.934;6.958;2023-11-19T06:19:11;11.90;99.90
3678;DHT22;1855;50.934;6.958;2023-11-19T06:21:38;12.00;99.90
3678;DHT22;1855;50.934;6.958;2023-11-19T06:24:05;12.00;99.90
3678;DHT22;1855;50.934;6.958;2023-11-19T06:26:32;12.00;99.90
3678;DHT22;1855;50.934;6.958;2023-11-19T06:29:00;12.00;99.90
3678;DHT22;1855;50.934;6.958;2023-11-19T06:31:27;12.00;99.90
3678;DHT22;1855;50.934;6.958;2023-11-19T06:33:54;12.00;99.90
3678;DHT22;1855;50.934;6.958;2023-11-19T06:36:20;12.00;99.90
3678;DHT22;1855;50.934;6.958;2023-11-19T06:38:47;11.90;99.90
3678;DHT22;1855;50.934;6.958;2023-11-19T06:41:14;11.90;99.90
3678;DHT22;1855;50.934;6.958;2023-11-19T06:43:41;11.90;99.90
3678;DHT22;1855;50.934;6.958;2023-11-19T06:46:16;11.90;99.90
3678;DHT22;1855;50.934;6.958;2023-11-19T06:48:43;11.90;99.90
3678;DHT22;1855;50.934;6.958;2023-11-19T06:51:10;11.90;99.90
3678;DHT22;1855;50.934;6.958;2023-11-19T06:53:37;11.90;99.90
3678;DHT22;1855;50.934;6.958;2023-11-19T06:56:05;11.80;99.90
3678;DHT22;1855;50.934;6.958;2023-11-19T06:58:36;11.80;99.90
3678;DHT22;1855;50.934;6.958;2023-11-19T07:01:02;11.90;99.90
3678;DHT22;1855;50.934;6.958;2023-11-19T07:03:31;11.90;99.90
3678;DHT22;1855;50.934;6.958;2023-11-19T07:05:58;11.80;99.90
3678;DHT22;1855;50.934;6.958;2023-11-19T07:08:24;11.90;99.90
3678;DHT22;1855;50.934;6.958;2023-11-19T07:10:52;11.90;99.90
3678;DHT22;1855;50.934;6.958;2023-11-19T07:13:18;11.90;99.90
3678;DHT22;1855;50.934;6.958;2023-11-19T07:15:46;11.90;99.90
3678;DHT22;1855;50.934;6.958;2023-11-19T07:18:13;11.80;99.90
3678;DHT22;1855;50.934;6.958;2023-11-19T07:20:41;11.80;99.90
3678;DHT22;1855;50.934;6.958;2023-11-19T07:23:09;11.80;99.90
3678;DHT22;1855;50.934;6.958;2023-11-19T07:25:35;11.80;99.90
3678;DHT22;1855;50.934;6.958;2023-11-19T07:28:02;11.80;99.90
3678;DHT22;1855;50.934;6.958;2023-11-19T07:30:30;11.80;99.90
3678;DHT22;1855;50.934;6.958;2023-11-19T07:32:56;11.80;99.90
3678;DHT22;1855;50.934;6.958;2023-11-19T07:35:23;11.80;99.90
3678;DHT22;1855;50.934;6.958;2023-11-19T07:37:51;11.90;99.90
3678;DHT22;1855;50.934;6.958;2023-11-19T07:40:18;11.90;99.90
3678;DHT22;1855;50.934;6.958;2023-11-19T07:42:45;11.90;99.90
3678;DHT22;1855;50.934;6.958;2023-11-19T07:45:12;11.90;99.90
3678;DHT22;1855;50.934;6.958;2023-11-19T07:47:39;12.00;99.90
3678;DHT22;1855;50.934;6.958;2023-11-19T07:50:06;11.90;99.90
3678;DHT22;1855;50.934;6.958;2023-11-19T07:52:33;12.00;99.90
3678;DHT22;1855;50.934;6.958;2023-11-19T07:55:01;11.90;99.90
3678;DHT22;1855;50.934;6.958;2023-11-19T07:57:28;11.90;99.90
3678;DHT22;1855;50.934;6.958;2023-11-19T07:59:56;11.90;99.90
3678;DHT22;1855;50.934;6.958;2023-11-19T08:02:23;11.80;99.90
3678;DHT22;1855;50.934;6.958;2023-11-19T08:04:50;11.80;99.90
3678;DHT22;1855;50.934;6.958;2023-11-19T08:07:17;11.90;99.90
3678;DHT22;1855;50.934;6.958;2023-11-19T08:09:44;11.90;99.90
3678;DHT22;1855;50.934;6.958;2023-11-19T08:12:12;11.90;99.90
3678;DHT22;1855;50.934;6.958;2023-11-19T08:14:40;11.90;99.90
3678;DHT22;1855;50.934;6.958;2023-11-19T08:17:06;11.90;99.90
3678;DHT22;1855;50.934;6.958;2023-11-19T08:19:33;11.90;99.90
3678;DHT22;1855;50.934;6.958;2023-11-19T08:22:00;12.00;99.90
3678;DHT22;1855;50.934;6.958;2023-11-19T08:24:27;12.10;99.90
3678;DHT22;1855;50.934;6.958;2023-11-19T08:26:54;12.20;99.90
3678;DHT22;1855;50.934;6.958;2023-11-19T08:29:22;12.30;99.90
3678;DHT22;1855;50.934;6.958;2023-11-19T08:31:50;12.40;99.90
3678;DHT22;1855;50.934;6.958;2023-11-19T08:34:16;12.50;99.90
3678;DHT22;1855;50.934;6.958;2023-11-19T08:36:43;12.50;99.90
3678;DHT22;1855;50.934;6.958;2023-11-19T08:39:10;12.60;99.90
3678;DHT22;1855;50.934;6.958;2023-11-19T08:41:36;12.80;99.90
3678;DHT22;1855;50.934;6.958;2023-11-19T08:44:05;12.80;99.90
3678;DHT22;1855;50.934;6.958;2023-11-19T08:46:33;12.90;99.90
3678;DHT22;1855;50.934;6.958;2023-11-19T08:49:00;13.00;99.90
3678;DHT22;1855;50.934;6.958;2023-11-19T08:51:27;13.00;99.90
3678;DHT22;1855;50.934;6.958;2023-11-19T08:53:53;13.10;99.90
3678;DHT22;1855;50.934;6.958;2023-11-19T08:56:21;13.20;99.90
3678;DHT22;1855;50.934;6.958;2023-11-19T08:58:47;13.20;99.90
3678;DHT22;1855;50.934;6.958;2023-11-19T09:01:14;13.30;99.90
3678;DHT22;1855;50.934;6.958;2023-11-19T09:03:42;13.30;99.90
3678;DHT22;1855;50.934;6.958;2023-11-19T09:06:09;13.40;99.90
3678;DHT22;1855;50.934;6.958;2023-11-19T09:08:36;13.50;99.90
3678;DHT22;1855;50.934;6.958;2023-11-19T09:11:07;13.60;99.90
3678;DHT22;1855;50.934;6.958;2023-11-19T09:13:34;13.70;99.90
3678;DHT22;1855;50.934;6.958;2023-11-19T09:16:00;13.80;99.90
3678;DHT22;1855;50.934;6.958;2023-11-19T09:18:28;13.80;99.90
3678;DHT22;1855;50.934;6.958;2023-11-19T09:20:57;13.90;99.90
3678;DHT22;1855;50.934;6.958;2023-11-19T09:23:23;13.90;99.90
3678;DHT22;1855;50.934;6.958;2023-11-19T09:25:51;13.90;99.90
3678;DHT22;1855;50.934;6.958;2023-11-19T09:28:17;13.90;99.90
3678;DHT22;1855;50.934;6.958;2023-11-19T09:30:44;13.90;99.90
3678;DHT22;1855;50.934;6.958;2023-11-19T09:33:11;13.90;99.90
3678;DHT22;1855;50.934;6.958;2023-11-19T09:35:37;14.00;99.90
3678;DHT22;1855;50.934;6.958;2023-11-19T09:38:06;14.00;99.90
3678;DHT22;1855;50.934;6.958;2023-11-19T09:40:33;14.10;99.90
3678;DHT22;1855;50.934;6.958;2023-11-19T09:42:59;14.10;99.90
3678;DHT22;1855;50.934;6.958;2023-11-19T09:45:28;14.10;99.90
3678;DHT22;1855;50.934;6.958;2023-11-19T09:47:56;14.30;99.90
3678;DHT22;1855;50.934;6.958;2023-11-19T09:50:23;14.40;99.90
3678;DHT22;1855;50.934;6.958;2023-11-19T09:52:50;14.50;99.50
3678;DHT22;1855;50.934;6.958;2023-11-19T09:55:18;14.40;99.90
3678;DHT22;1855;50.934;6.958;2023-11-19T09:57:46;14.40;99.80
3678;DHT22;1855;50.934;6.958;2023-11-19T10:00:15;14.30;99.90
3678;DHT22;1855;50.934;6.958;2023-11-19T10:02:44;14.30;99.50
3678;DHT22;1855;50.934;6.958;2023-11-19T10:05:12;14.30;99.70
3678;DHT22;1855;50.934;6.958;2023-11-19T10:07:40;14.20;99.60
3678;DHT22;1855;50.934;6.958;2023-11-19T10:10:08;14.20;99.50
3678;DHT22;1855;50.934;6.958;2023-11-19T10:12:37;14.30;99.60
3678;DHT22;1855;50.934;6.958;2023-11-19T10:15:06;14.50;99.10
3678;DHT22;1855;50.934;6.958;2023-11-19T10:17:35;14.60;99.20
3678;DHT22;1855;50.934;6.958;2023-11-19T10:20:02;14.70;97.30
3678;DHT22;1855;50.934;6.958;2023-11-19T10:22:30;14.50;97.90
3678;DHT22;1855;50.934;6.958;2023-11-19T10:24:56;14.50;98.30
3678;DHT22;1855;50.934;6.958;2023-11-19T10:27:24;14.40;98.60
3678;DHT22;1855;50.934;6.958;2023-11-19T10:29:52;14.30;98.60
3678;DHT22;1855;50.934;6.958;2023-11-19T10:32:19;14.30;98.70
3678;DHT22;1855;50.934;6.958;2023-11-19T10:34:45;14.40;98.60
3678;DHT22;1855;50.934;6.958;2023-11-19T10:37:27;14.40;98.90
3678;DHT22;1855;50.934;6.958;2023-11-19T10:39:55;14.40;99.10
3678;DHT22;1855;50.934;6.958;2023-11-19T10:42:22;14.40;98.40
3678;DHT22;1855;50.934;6.958;2023-11-19T10:44:49;14.50;98.50
3678;DHT22;1855;50.934;6.958;2023-11-19T10:47:19;14.40;97.30
3678;DHT22;1855;50.934;6.958;2023-11-19T10:49:46;14.40;97.50
3678;DHT22;1855;50.934;6.958;2023-11-19T10:52:18;14.40;97.70
3678;DHT22;1855;50.934;6.958;2023-11-19T10:54:50;14.30;97.70
3678;DHT22;1855;50.934;6.958;2023-11-19T10:57:20;14.20;97.60
3678;DHT22;1855;50.934;6.958;2023-11-19T10:59:47;14.20;97.80
3678;DHT22;1855;50.934;6.958;2023-11-19T11:02:21;14.10;97.80
3678;DHT22;1855;50.934;6.958;2023-11-19T11:04:50;14.10;97.70
3678;DHT22;1855;50.934;6.958;2023-11-19T11:07:19;14.10;98.20
3678;DHT22;1855;50.934;6.958;2023-11-19T11:09:48;14.10;98.70
3678;DHT22;1855;50.934;6.958;2023-11-19T11:12:15;14.00;98.10
3678;DHT22;1855;50.934;6.958;2023-11-19T11:14:44;14.00;98.50
3678;DHT22;1855;50.934;6.958;2023-11-19T11:17:12;13.90;99.90
3678;DHT22;1855;50.934;6.958;2023-11-19T11:19:45;13.70;99.90
3678;DHT22;1855;50.934;6.958;2023-11-19T11:22:12;13.40;99.90
3678;DHT22;1855;50.934;6.958;2023-11-19T11:28:08;13.10;99.90
3678;DHT22;1855;50.934;6.958;2023-11-19T11:30:51;13.00;99.90
3678;DHT22;1855;50.934;6.958;2023-11-19T11:33:31;13.10;99.90
3678;DHT22;1855;50.934;6.958;2023-11-19T11:36:10;13.30;99.90
3678;DHT22;1855;50.934;6.958;2023-11-19T11:38:40;13.40;99.90
3678;DHT22;1855;50.934;6.958;2023-11-19T11:41:18;13.60;99.20
3678;DHT22;1855;50.934;6.958;2023-11-19T11:43:46;13.70;98.80
3678;DHT22;1855;50.934;6.958;2023-11-19T11:49:25;13.80;97.00
3678;DHT22;1855;50.934;6.958;2023-11-19T11:52:02;13.80;97.10
3678;DHT22;1855;50.934;6.958;2023-11-19T11:54:32;13.80;97.10
3678;DHT22;1855;50.934;6.958;2023-11-19T11:57:07;13.80;97.50
3678;DHT22;1855;50.934;6.958;2023-11-19T11:59:45;13.80;97.30
3678;DHT22;1855;50.934;6.958;2023-11-19T12:02:14;13.90;97.70
3678;DHT22;1855;50.934;6.958;2023-11-19T12:04:42;14.10;97.20
3678;DHT22;1855;50.934;6.958;2023-11-19T12:07:12;14.40;96.80
3678;DHT22;1855;50.934;6.958;2023-11-19T12:09:40;14.80;95.90
3678;DHT22;1855;50.934;6.958;2023-11-19T12:12:13;14.90;94.70
3678;DHT22;1855;50.934;6.958;2023-11-19T12:15:03;14.90;94.60
3678;DHT22;1855;50.934;6.958;2023-11-19T12:17:42;14.80;95.60
3678;DHT22;1855;50.934;6.958;2023-11-19T12:20:11;14.90;94.80
3678;DHT22;1855;50.934;6.958;2023-11-19T12:22:39;15.00;94.50
3678;DHT22;1855;50.934;6.958;2023-11-19T12:25:07;15.00;94.60
3678;DHT22;1855;50.934;6.958;2023-11-19T12:27:34;14.90;94.70
3678;DHT22;1855;50.934;6.958;2023-11-19T12:30:01;14.80;95.30
3678;DHT22;1855;50.934;6.958;2023-11-19T12:32:37;14.90;95.60
3678;DHT22;1855;50.934;6.958;2023-11-19T12:35:05;14.90;95.00
3678;DHT22;1855;50.934;6.958;2023-11-19T12:37:32;15.10;94.50
3678;DHT22;1855;50.934;6.958;2023-11-19T12:40:00;15.30;94.40
3678;DHT22;1855;50.934;6.958;2023-11-19T12:42:35;15.40;93.80
3678;DHT22;1855;50.934;6.958;2023-11-19T12:45:03;15.30;93.40
3678;DHT22;1855;50.934;6.958;2023-11-19T12:47:30;15.20;93.60
3678;DHT22;1855;50.934;6.958;2023-11-19T12:49:57;15.00;94.40
3678;DHT22;1855;50.934;6.958;2023-11-19T12:52:23;14.80;94.80
3678;DHT22;1855;50.934;6.958;2023-11-19T12:54:50;14.60;95.00
3678;DHT22;1855;50.934;6.958;2023-11-19T12:57:18;14.50;95.70
3678;DHT22;1855;50.934;6.958;2023-11-19T12:59:55;14.40;96.30
3678;DHT22;1855;50.934;6.958;2023-11-19T13:02:22;14.20;96.80
3678;DHT22;1855;50.934;6.958;2023-11-19T13:04:49;14.10;97.20
3678;DHT22;1855;50.934;6.958;2023-11-19T13:07:20;14.10;98.10
3678;DHT22;1855;50.934;6.958;2023-11-19T13:09:47;14.00;98.10
3678;DHT22;1855;50.934;6.958;2023-11-19T13:12:14;14.10;98.30
3678;DHT22;1855;50.934;6.958;2023-11-19T13:14:43;14.20;98.10
3678;DHT22;1855;50.934;6.958;2023-11-19T13:17:15;14.10;98.00
3678;DHT22;1855;50.934;6.958;2023-11-19T13:19:42;14.20;98.30
3678;DHT22;1855;50.934;6.958;2023-11-19T13:22:09;14.30;98.30
3678;DHT22;1855;50.934;6.958;2023-11-19T13:24:36;14.40;97.90
3678;DHT22;1855;50.934;6.958;2023-11-19T13:27:03;14.50;97.30
3678;DHT22;1855;50.934;6.958;2023-11-19T13:29:29;14.70;97.10
3678;DHT22;1855;50.934;6.958;2023-11-19T13:31:58;14.70;97.20
3678;DHT22;1855;50.934;6.958;2023-11-19T13:34:25;14.60;96.80
3678;DHT22;1855;50.934;6.958;2023-11-19T13:36:52;14.50;96.70
3678;DHT22;1855;50.934;6.958;2023-11-19T13:39:18;14.40;96.20
3678;DHT22;1855;50.934;6.958;2023-11-19T13:41:48;14.40;96.80
3678;DHT22;1855;50.934;6.958;2023-11-19T13:44:15;14.40;96.60
3678;DHT22;1855;50.934;6.958;2023-11-19T13:46:44;14.40;96.60
3678;DHT22;1855;50.934;6.958;2023-11-19T13:49:12;14.40;96.30
3678;DHT22;1855;50.934;6.958;2023-11-19T13:51:39;14.40;95.90
3678;DHT22;1855;50.934;6.958;2023-11-19T13:54:06;14.50;95.70
3678;DHT22;1855;50.934;6.958;2023-11-19T13:56:32;14.50;95.60
3678;DHT22;1855;50.934;6.958;2023-11-19T13:58:59;14.60;95.20
3678;DHT22;1855;50.934;6.958;2023-11-19T14:01:26;14.60;95.10
3678;DHT22;1855;50.934;6.958;2023-11-19T14:03:53;14.60;94.70
3678;DHT22;1855;50.934;6.958;2023-11-19T14:06:21;14.50;95.00
3678;DHT22;1855;50.934;6.958;2023-11-19T14:08:48;14.50;95.20
3678;DHT22;1855;50.934;6.958;2023-11-19T14:11:14;14.40;95.00
3678;DHT22;1855;50.934;6.958;2023-11-19T14:13:41;14.40;95.20
3678;DHT22;1855;50.934;6.958;2023-11-19T14:16:08;14.30;94.90
3678;DHT22;1855;50.934;6.958;2023-11-19T14:18:36;14.20;95.20
3678;DHT22;1855;50.934;6.958;2023-11-19T14:21:03;14.20;96.00
3678;DHT22;1855;50.934;6.958;2023-11-19T14:23:31;14.10;95.70
3678;DHT22;1855;50.934;6.958;2023-11-19T14:25:58;14.10;96.00
3678;DHT22;1855;50.934;6.958;2023-11-19T14:28:25;14.10;95.90
3678;DHT22;1855;50.934;6.958;2023-11-19T14:30:52;14.10;95.50
3678;DHT22;1855;50.934;6.958;2023-11-19T14:33:22;14.00;95.30
3678;DHT22;1855;50.934;6.958;2023-11-19T14:35:49;14.00;95.30
3678;DHT22;1855;50.934;6.958;2023-11-19T14:38:16;13.90;95.60
3678;DHT22;1855;50.934;6.958;2023-11-19T14:40:44;13.90;95.60
3678;DHT22;1855;50.934;6.958;2023-11-19T14:43:10;13.90;96.00
3678;DHT22;1855;50.934;6.958;2023-11-19T14:45:37;13.80;95.60
3678;DHT22;1855;50.934;6.958;2023-11-19T14:48:05;13.80;96.00
3678;DHT22;1855;50.934;6.958;2023-11-19T14:50:32;13.80;96.10
3678;DHT22;1855;50.934;6.958;2023-11-19T14:52:58;13.70;97.70
3678;DHT22;1855;50.934;6.958;2023-11-19T14:55:25;13.60;98.10
3678;DHT22;1855;50.934;6.958;2023-11-19T14:57:53;13.50;97.80
3678;DHT22;1855;50.934;6.958;2023-11-19T15:00:21;13.50;97.50
3678;DHT22;1855;50.934;6.958;2023-11-19T15:02:48;13.50;97.60
3678;DHT22;1855;50.934;6.958;2023-11-19T15:05:15;13.50;97.50
3678;DHT22;1855;50.934;6.958;2023-11-19T15:07:41;13.40;97.30
3678;DHT22;1855;50.934;6.958;2023-11-19T15:10:08;13.40;97.70
3678;DHT22;1855;50.934;6.958;2023-11-19T15:12:36;13.40;97.40
3678;DHT22;1855;50.934;6.958;2023-11-19T15:15:07;13.40;97.40
3678;DHT22;1855;50.934;6.958;2023-11-19T15:17:35;13.30;97.60
3678;DHT22;1855;50.934;6.958;2023-11-19T15:20:03;13.30;97.80
3678;DHT22;1855;50.934;6.958;2023-11-19T15:22:30;13.30;98.10
3678;DHT22;1855;50.934;6.958;2023-11-19T15:24:57;13.20;98.40
3678;DHT22;1855;50.934;6.958;2023-11-19T15:27:23;13.20;98.30
3678;DHT22;1855;50.934;6.958;2023-11-19T15:29:50;13.20;98.70
3678;DHT22;1855;50.934;6.958;2023-11-19T15:32:19;13.10;98.60
3678;DHT22;1855;50.934;6.958;2023-11-19T15:34:46;13.10;99.00
3678;DHT22;1855;50.934;6.958;2023-11-19T15:37:12;13.10;99.10
3678;DHT22;1855;50.934;6.958;2023-11-19T15:39:40;13.00;99.90
3678;DHT22;1855;50.934;6.958;2023-11-19T15:42:07;12.80;99.90
3678;DHT22;1855;50.934;6.958;2023-11-19T15:44:35;12.50;99.90
3678;DHT22;1855;50.934;6.958;2023-11-19T15:47:02;12.30;99.90
3678;DHT22;1855;50.934;6.958;2023-11-19T15:49:31;12.10;99.90
3678;DHT22;1855;50.934;6.958;2023-11-19T15:51:58;12.00;99.90
3678;DHT22;1855;50.934;6.958;2023-11-19T15:54:25;11.90;99.90
3678;DHT22;1855;50.934;6.958;2023-11-19T15:56:51;11.90;99.90
3678;DHT22;1855;50.934;6.958;2023-11-19T15:59:18;11.90;99.90
3678;DHT22;1855;50.934;6.958;2023-11-19T16:01:46;11.80;99.90
3678;DHT22;1855;50.934;6.958;2023-11-19T16:04:13;11.80;99.90
3678;DHT22;1855;50.934;6.958;2023-11-19T16:06:41;11.80;99.90
3678;DHT22;1855;50.934;6.958;2023-11-19T16:09:08;11.80;99.90
3678;DHT22;1855;50.934;6.958;2023-11-19T16:11:40;11.80;99.90
3678;DHT22;1855;50.934;6.958;2023-11-19T16:14:09;11.90;99.90